createdAt,value
2023-03-06T00:00:48.903Z,99744.20
2023-03-06T00:03:22.878Z,99742.29
2023-03-06T00:05:53.630Z,99741.66
2023-03-06T00:08:24.887Z,99739.27
2023-03-06T00:10:54.546Z,99738.36
2023-03-06T00:13:25.919Z,99735.80
2023-03-06T00:16:00.055Z,99735.61
2023-03-06T00:18:31.228Z,99725.38
2023-03-06T00:21:02.610Z,99724.64
2023-03-06T00:23:33.270Z,99719.73
2023-03-06T00:26:06.488Z,99717.48
2023-03-06T00:28:37.677Z,99723.15
2023-03-06T00:31:08.571Z,99719.50
2023-03-06T00:33:39.365Z,99724.76
2023-03-06T00:36:10.778Z,99724.48
2023-03-06T00:38:41.558Z,99728.00
2023-03-06T00:41:13.224Z,99727.80
2023-03-06T00:43:43.848Z,99724.11
2023-03-06T00:46:14.619Z,99717.39
2023-03-06T00:48:45.356Z,99715.90
2023-03-06T00:51:16.009Z,99712.70
2023-03-06T00:53:46.741Z,99713.05
2023-03-06T00:56:19.840Z,99704.20
2023-03-06T00:58:50.620Z,99701.94
2023-03-06T01:01:21.402Z,99698.73
2023-03-06T01:03:52.049Z,99696.48
2023-03-06T01:06:22.857Z,99697.23
2023-03-06T01:08:53.474Z,99694.02
2023-03-06T01:11:24.376Z,99690.58
2023-03-06T01:13:55.102Z,99689.81
2023-03-06T01:16:25.808Z,99689.59
2023-03-06T01:18:56.472Z,99687.67
2023-03-06T01:21:28.064Z,99683.08
2023-03-06T01:23:58.772Z,99679.70
2023-03-06T01:26:29.478Z,99678.21
2023-03-06T01:29:00.161Z,99675.30
2023-03-06T01:31:30.898Z,99671.09
2023-03-06T01:34:01.902Z,99667.26
2023-03-06T01:36:32.594Z,99662.94
2023-03-06T01:39:03.762Z,99658.57
2023-03-06T01:41:32.962Z,99652.95
2023-03-06T01:44:04.646Z,99654.10
2023-03-06T01:46:37.706Z,99652.80
2023-03-06T01:49:15.139Z,99644.55
2023-03-06T01:51:52.083Z,99641.07
2023-03-06T01:54:26.898Z,99642.69
2023-03-06T01:57:03.641Z,99637.15
2023-03-06T01:59:36.800Z,99639.92
2023-03-06T02:02:09.473Z,99635.30
2023-03-06T02:04:41.643Z,99628.25
2023-03-06T02:07:14.264Z,99624.06
2023-03-06T02:09:45.031Z,99615.44
2023-03-06T02:12:18.833Z,99616.89
2023-03-06T02:14:50.312Z,99615.80
2023-03-06T02:17:22.412Z,99613.37
2023-03-06T02:20:00.556Z,99611.75
2023-03-06T02:22:37.542Z,99612.02
2023-03-06T02:25:15.235Z,99608.35
2023-03-06T02:27:46.000Z,99607.60
2023-03-06T02:30:19.077Z,99609.79
2023-03-06T02:32:56.861Z,99607.06
2023-03-06T02:35:29.001Z,99601.82
2023-03-06T02:38:04.499Z,99599.25
2023-03-06T02:40:35.382Z,99596.66
2023-03-06T02:43:06.148Z,99592.03
2023-03-06T02:45:39.548Z,99595.09
2023-03-06T02:48:10.254Z,99593.08
2023-03-06T02:50:41.398Z,99595.52
2023-03-06T02:53:11.212Z,99597.35
2023-03-06T02:55:41.938Z,99592.82
2023-03-06T02:58:12.691Z,99593.54
2023-03-06T03:00:43.349Z,99592.29
2023-03-06T03:03:14.229Z,99588.27
2023-03-06T03:05:44.871Z,99591.64
2023-03-06T03:08:15.600Z,99587.73
2023-03-06T03:10:46.253Z,99588.17
2023-03-06T03:13:16.992Z,99581.39
2023-03-06T03:15:57.073Z,99580.94
2023-03-06T03:18:28.177Z,99579.06
2023-03-06T03:20:57.505Z,99575.96
2023-03-06T03:23:28.281Z,99572.98
2023-03-06T03:26:08.096Z,99570.13
2023-03-06T03:28:39.161Z,99565.55
2023-03-06T03:31:11.123Z,99564.73
2023-03-06T03:33:42.408Z,99561.14
2023-03-06T03:36:11.516Z,99560.02
2023-03-06T03:38:42.280Z,99556.02
2023-03-06T03:41:13.051Z,99550.70
2023-03-06T03:43:43.908Z,99546.89
2023-03-06T03:46:14.617Z,99543.95
2023-03-06T03:48:45.323Z,99540.07
2023-03-06T03:51:16.022Z,99544.29
2023-03-06T03:53:46.774Z,99539.05
2023-03-06T03:56:17.518Z,99533.83
2023-03-06T03:58:48.221Z,99531.59
2023-03-06T04:01:18.920Z,99526.80
2023-03-06T04:03:49.636Z,99526.20
2023-03-06T04:06:20.607Z,99523.39
2023-03-06T04:08:51.333Z,99517.00
2023-03-06T04:11:22.011Z,99515.17
2023-03-06T04:13:52.695Z,99509.33
2023-03-06T04:16:23.730Z,99507.23
2023-03-06T04:18:54.451Z,99507.58
2023-03-06T04:21:25.206Z,99505.77
2023-03-06T04:23:56.076Z,99501.98
2023-03-06T04:26:26.968Z,99497.02
2023-03-06T04:28:57.634Z,99491.69
2023-03-06T04:31:28.284Z,99486.55
2023-03-06T04:33:58.977Z,99481.29
2023-03-06T04:36:33.690Z,99474.17
2023-03-06T04:39:05.512Z,99475.15
2023-03-06T04:41:36.163Z,99470.30
2023-03-06T04:44:07.704Z,99467.20
2023-03-06T04:46:38.545Z,99471.23
2023-03-06T04:49:09.253Z,99465.84
2023-03-06T04:51:39.892Z,99462.02
2023-03-06T04:54:10.587Z,99456.70
2023-03-06T04:56:41.549Z,99456.57
2023-03-06T04:59:12.230Z,99458.95
2023-03-06T05:01:42.951Z,99454.57
2023-03-06T05:04:13.569Z,99450.67
2023-03-06T05:06:44.320Z,99445.54
2023-03-06T05:09:15.043Z,99443.17
2023-03-06T05:11:45.686Z,99441.21
2023-03-06T05:14:16.419Z,99437.80
2023-03-06T05:16:47.171Z,99437.80
2023-03-06T05:19:17.882Z,99433.80
2023-03-06T05:21:48.514Z,99432.48
2023-03-06T05:24:19.574Z,99431.50
2023-03-06T05:26:48.797Z,99427.77
2023-03-06T05:29:19.471Z,99428.13
2023-03-06T05:31:50.193Z,99423.38
2023-03-06T05:34:20.884Z,99426.61
2023-03-06T05:36:51.557Z,99425.48
2023-03-06T05:39:22.261Z,99419.96
2023-03-06T05:41:52.867Z,99418.31
2023-03-06T05:44:23.510Z,99421.11
2023-03-06T05:46:54.105Z,99418.80
2023-03-06T05:49:24.794Z,99415.73
2023-03-06T05:51:55.451Z,99413.36
2023-03-06T05:54:26.132Z,99411.19
2023-03-06T05:56:56.929Z,99410.92
2023-03-06T05:59:28.163Z,99410.28
2023-03-06T06:01:59.900Z,99407.01
2023-03-06T06:04:30.687Z,99405.88
2023-03-06T06:07:01.937Z,99403.16
2023-03-06T06:09:32.613Z,99399.18
2023-03-06T06:12:04.634Z,99403.91
2023-03-06T06:14:36.409Z,99401.48
2023-03-06T06:17:07.219Z,99401.77
2023-03-06T06:19:38.540Z,99398.05
2023-03-06T06:22:09.742Z,99395.40
2023-03-06T06:24:38.948Z,99395.23
2023-03-06T06:27:10.090Z,99392.00
2023-03-06T06:29:39.173Z,99389.34
2023-03-06T06:32:09.919Z,99392.69
2023-03-06T06:34:40.557Z,99398.42
2023-03-06T06:37:13.125Z,99407.83
2023-03-06T06:39:43.930Z,99412.02
2023-03-06T06:42:30.997Z,99399.09
2023-03-06T06:45:04.454Z,99395.52
2023-03-06T06:47:35.169Z,99395.16
2023-03-06T06:50:15.678Z,99391.80
2023-03-06T06:52:46.400Z,99387.26
2023-03-06T06:55:17.658Z,99395.74
2023-03-06T06:57:48.366Z,99417.80
2023-03-06T07:00:20.781Z,99426.95
2023-03-06T07:02:51.478Z,99402.13
2023-03-06T07:05:22.272Z,99376.44
2023-03-06T07:07:53.053Z,99406.79
2023-03-06T07:10:24.592Z,99396.53
2023-03-06T07:12:55.247Z,99390.29
2023-03-06T07:15:26.050Z,99396.88
2023-03-06T07:17:56.782Z,99394.44
2023-03-06T07:20:28.366Z,99396.41
2023-03-06T07:22:59.067Z,99394.05
2023-03-06T07:25:29.894Z,99397.13
2023-03-06T07:28:00.704Z,99395.98
2023-03-06T07:30:32.693Z,99398.79
2023-03-06T07:33:03.416Z,99399.64
2023-03-06T07:35:34.431Z,99401.30
2023-03-06T07:38:05.396Z,99403.73
2023-03-06T07:40:36.080Z,99406.83
2023-03-06T07:43:18.617Z,99406.73
2023-03-06T07:45:57.596Z,99408.02
2023-03-06T07:48:28.735Z,99404.65
2023-03-06T07:51:01.726Z,99405.05
2023-03-06T07:53:33.044Z,99402.84
2023-03-06T07:56:05.592Z,99402.45
2023-03-06T07:58:36.865Z,99402.73
2023-03-06T08:01:09.689Z,99407.98
2023-03-06T08:03:40.530Z,99410.11
2023-03-06T08:06:13.882Z,99410.52
2023-03-06T08:08:46.187Z,99409.29
2023-03-06T08:11:19.560Z,99408.92
2023-03-06T08:13:50.980Z,99412.20
2023-03-06T08:16:23.777Z,99408.11
2023-03-06T08:18:54.873Z,99412.33
2023-03-06T08:21:24.856Z,99418.85
2023-03-06T08:23:55.919Z,99418.58
2023-03-06T08:26:27.285Z,99412.70
2023-03-06T08:29:00.371Z,99417.39
2023-03-06T08:31:35.266Z,99421.80
2023-03-06T08:34:07.333Z,99429.05
2023-03-06T08:36:40.504Z,99428.05
2023-03-06T08:39:11.776Z,99432.60
2023-03-06T08:41:43.098Z,99436.95
2023-03-06T08:44:13.989Z,99439.05
2023-03-06T08:46:44.733Z,99433.00
2023-03-06T08:49:15.785Z,99432.63
2023-03-06T08:51:46.444Z,99430.75
2023-03-06T08:54:17.232Z,99433.51
2023-03-06T08:56:48.012Z,99436.98
2023-03-06T08:59:18.760Z,99434.15
2023-03-06T09:01:49.720Z,99440.05
2023-03-06T09:04:20.559Z,99439.24
2023-03-06T09:06:51.304Z,99445.91
2023-03-06T09:09:22.000Z,99444.46
2023-03-06T09:11:52.629Z,99444.81
2023-03-06T09:14:23.283Z,99445.83
2023-03-06T09:16:54.096Z,99449.63
2023-03-06T09:19:24.856Z,99451.92
2023-03-06T09:21:55.575Z,99453.93
2023-03-06T09:24:26.240Z,99453.69
2023-03-06T09:26:56.978Z,99452.00
2023-03-06T09:29:28.245Z,99455.81
2023-03-06T09:31:59.013Z,99452.98
2023-03-06T09:34:29.719Z,99453.28
2023-03-06T09:37:01.561Z,99454.20
2023-03-06T09:39:32.286Z,99453.96
2023-03-06T09:42:03.549Z,99458.22
2023-03-06T09:44:34.430Z,99457.73
2023-03-06T09:47:38.375Z,99457.54
2023-03-06T09:50:18.577Z,99455.58
2023-03-06T09:53:03.470Z,99457.54
2023-03-06T09:55:36.164Z,99456.73
2023-03-06T09:58:15.695Z,99460.91
2023-03-06T10:00:55.439Z,99460.73
2023-03-06T10:03:31.147Z,99461.34
2023-03-06T10:06:09.419Z,99460.17
2023-03-06T10:08:51.531Z,99458.35
2023-03-06T10:11:29.058Z,99459.73
2023-03-06T10:14:13.991Z,99457.27
2023-03-06T10:16:44.718Z,99450.75
2023-03-06T10:19:18.145Z,99451.10
2023-03-06T10:21:58.265Z,99446.86
2023-03-06T10:24:46.930Z,99446.56
2023-03-06T10:27:38.430Z,99446.21
2023-03-06T10:30:32.640Z,99449.70
2023-03-06T10:33:08.923Z,99443.79
2023-03-06T10:35:48.223Z,99442.27
2023-03-06T10:38:23.141Z,99446.20
2023-03-06T10:41:06.224Z,99445.48
2023-03-06T10:43:38.322Z,99446.31
2023-03-06T10:46:10.864Z,99444.62
2023-03-06T10:48:43.662Z,99450.60
2023-03-06T10:51:19.928Z,99452.07
2023-03-06T10:53:53.336Z,99454.84
2023-03-06T10:56:32.887Z,99454.42
2023-03-06T10:59:15.028Z,99453.38
2023-03-06T11:01:47.187Z,99454.26
2023-03-06T11:04:29.426Z,99451.48
2023-03-06T11:07:16.428Z,99451.92
2023-03-06T11:10:01.372Z,99454.91
2023-03-06T11:12:33.367Z,99452.64
2023-03-06T11:15:19.679Z,99456.39
2023-03-06T11:18:00.269Z,99453.19
2023-03-06T11:20:49.995Z,99455.61
2023-03-06T11:23:29.123Z,99456.42
2023-03-06T11:26:05.213Z,99452.84
2023-03-06T11:28:42.173Z,99447.27
2023-03-06T11:31:16.436Z,99446.02
2023-03-06T11:33:52.631Z,99445.48
2023-03-06T11:36:30.220Z,99445.90
2023-03-06T11:39:02.991Z,99446.20
2023-03-06T11:41:40.461Z,99439.33
2023-03-06T11:44:18.038Z,99436.02
2023-03-06T11:47:03.289Z,99439.02
2023-03-06T11:49:43.640Z,99436.85
2023-03-06T11:52:23.578Z,99432.02
2023-03-06T11:54:56.394Z,99433.66
2023-03-06T11:57:35.114Z,99433.02
2023-03-06T12:00:19.525Z,99435.55
2023-03-06T12:03:12.592Z,99430.61
2023-03-06T12:05:50.559Z,99438.13
2023-03-06T12:08:46.425Z,99438.05
2023-03-06T12:11:23.832Z,99437.75
2023-03-06T12:14:10.972Z,99434.75
2023-03-06T12:16:53.168Z,99434.63
2023-03-06T12:19:37.917Z,99435.11
2023-03-06T12:22:31.529Z,99434.47
2023-03-06T12:25:22.801Z,99430.98
2023-03-06T12:27:54.252Z,99434.50
2023-03-06T12:30:40.007Z,99429.23
2023-03-06T12:33:22.698Z,99431.83
2023-03-06T12:36:16.639Z,99426.33
2023-03-06T12:39:09.799Z,99431.82
2023-03-06T12:41:54.517Z,99427.61
2023-03-06T12:44:51.738Z,99433.79
2023-03-06T12:47:26.776Z,99435.80
2023-03-06T12:50:00.978Z,99435.25
2023-03-06T12:52:33.853Z,99434.34
2023-03-06T12:55:08.308Z,99438.75
2023-03-06T12:57:38.960Z,99435.83
2023-03-06T13:00:43.811Z,99433.46
2023-03-06T13:03:21.490Z,99436.74
2023-03-06T13:06:12.335Z,99434.52
2023-03-06T13:09:14.086Z,99430.77
2023-03-06T13:12:02.967Z,99429.00
2023-03-06T13:14:56.479Z,99427.84
2023-03-06T13:17:36.048Z,99423.32
2023-03-06T13:20:29.380Z,99423.21
2023-03-06T13:23:20.138Z,99420.71
2023-03-06T13:25:51.722Z,99423.68
2023-03-06T13:28:38.886Z,99420.15
2023-03-06T13:31:21.364Z,99421.05
2023-03-06T13:33:59.609Z,99415.86
2023-03-06T13:36:33.006Z,99420.58
2023-03-06T13:39:12.543Z,99422.06
2023-03-06T13:41:58.082Z,99420.10
2023-03-06T13:44:49.165Z,99423.76
2023-03-06T13:47:32.459Z,99425.48
2023-03-06T13:50:17.459Z,99420.73
2023-03-06T13:53:01.220Z,99423.16
2023-03-06T13:55:44.385Z,99419.11
2023-03-06T13:58:32.133Z,99416.96
2023-03-06T14:01:31.151Z,99417.85
2023-03-06T14:04:36.598Z,99416.53
2023-03-06T14:07:21.797Z,99415.81
2023-03-06T14:10:01.148Z,99418.65
2023-03-06T14:12:35.130Z,99413.89
2023-03-06T14:15:17.284Z,99413.80
2023-03-06T14:17:57.264Z,99410.02
2023-03-06T14:20:35.264Z,99409.22
2023-03-06T14:23:25.762Z,99413.33
2023-03-06T14:26:08.261Z,99410.27
2023-03-06T14:28:38.945Z,99410.67
2023-03-06T14:31:16.483Z,99413.48
2023-03-06T14:33:53.764Z,99409.98
2023-03-06T14:36:28.381Z,99414.34
2023-03-06T14:39:02.597Z,99413.44
2023-03-06T14:41:35.216Z,99408.65
2023-03-06T14:44:17.524Z,99405.98
2023-03-06T14:46:50.015Z,99410.40
2023-03-06T14:49:22.228Z,99411.73
2023-03-06T14:51:54.624Z,99414.40
2023-03-06T14:54:29.060Z,99414.58
2023-03-06T14:57:04.849Z,99415.55
2023-03-06T14:59:41.704Z,99419.46
2023-03-06T15:02:17.601Z,99420.52
2023-03-06T15:04:51.253Z,99420.13
2023-03-06T15:07:27.629Z,99416.91
2023-03-06T15:09:59.705Z,99422.16
2023-03-06T15:12:38.063Z,99418.16
2023-03-06T15:18:28.152Z,99414.23
2023-03-06T15:21:09.246Z,99414.60
2023-03-06T15:23:42.934Z,99414.41
2023-03-06T15:26:29.584Z,99420.25
2023-03-06T15:29:09.202Z,99421.02
2023-03-06T15:31:41.908Z,99418.35
2023-03-06T15:34:21.697Z,99423.18
2023-03-06T15:36:54.537Z,99421.16
2023-03-06T15:39:36.636Z,99421.83
2023-03-06T15:42:18.324Z,99420.40
2023-03-06T15:44:53.692Z,99420.35
2023-03-06T15:47:24.658Z,99416.64
2023-03-06T15:49:55.399Z,99418.64
2023-03-06T15:52:26.044Z,99419.40
2023-03-06T15:54:56.783Z,99421.39
2023-03-06T15:57:28.420Z,99421.02
2023-03-06T15:59:59.752Z,99421.80
2023-03-06T16:02:30.409Z,99418.94
2023-03-06T16:05:01.439Z,99417.55
2023-03-06T16:07:32.536Z,99418.10
2023-03-06T16:10:01.720Z,99417.85
2023-03-06T16:12:32.439Z,99415.89
2023-03-06T16:15:03.375Z,99414.23
2023-03-06T16:17:34.026Z,99413.23
2023-03-06T16:20:14.914Z,99417.37
2023-03-06T16:22:46.868Z,99419.98
2023-03-06T16:25:18.742Z,99427.88
2023-03-06T16:27:52.019Z,99423.98
2023-03-06T16:30:34.392Z,99422.33
2023-03-06T16:33:06.021Z,99426.50
2023-03-06T16:35:36.732Z,99424.34
2023-03-06T16:38:07.616Z,99423.62
2023-03-06T16:40:39.266Z,99420.92
2023-03-06T16:43:10.850Z,99423.73
2023-03-06T16:45:42.692Z,99423.33
2023-03-06T16:48:16.661Z,99421.97
2023-03-06T16:50:47.564Z,99424.98
2023-03-06T16:53:18.782Z,99425.40
2023-03-06T16:55:49.504Z,99427.21
2023-03-06T16:58:20.234Z,99429.30
2023-03-06T17:00:51.188Z,99428.01
2023-03-06T17:03:21.822Z,99431.27
2023-03-06T17:05:52.501Z,99435.89
2023-03-06T17:08:23.298Z,99440.17
2023-03-06T17:10:53.986Z,99444.66
2023-03-06T17:13:24.892Z,99445.62
2023-03-06T17:15:56.120Z,99454.32
2023-03-06T17:18:27.810Z,99448.25
2023-03-06T17:20:59.139Z,99452.27
2023-03-06T17:23:28.912Z,99454.70
2023-03-06T17:26:08.331Z,99451.86
2023-03-06T17:28:39.609Z,99449.52
2023-03-06T17:31:15.851Z,99456.16
2023-03-06T17:33:47.133Z,99457.80
2023-03-06T17:36:18.294Z,99454.64
2023-03-06T17:38:47.411Z,99458.52
2023-03-06T17:41:18.223Z,99463.08
2023-03-06T17:43:49.257Z,99459.14
2023-03-06T17:46:18.574Z,99456.84
2023-03-06T17:48:49.378Z,99458.65
2023-03-06T17:51:20.087Z,99456.78
2023-03-06T17:53:50.738Z,99456.77
2023-03-06T17:56:21.721Z,99446.91
2023-03-06T17:58:52.441Z,99446.79
2023-03-06T18:01:24.630Z,99448.45
2023-03-06T18:03:55.683Z,99446.41
2023-03-06T18:06:25.192Z,99444.45
2023-03-06T18:08:56.229Z,99448.05
2023-03-06T18:11:25.951Z,99449.96
2023-03-06T18:13:56.620Z,99446.13
2023-03-06T18:16:28.869Z,99445.68
2023-03-06T18:18:59.625Z,99449.73
2023-03-06T18:21:30.576Z,99452.71
2023-03-06T18:24:01.330Z,99453.45
2023-03-06T18:26:32.735Z,99454.86
2023-03-06T18:29:04.671Z,99451.88
2023-03-06T18:31:37.580Z,99450.20
2023-03-06T18:34:11.208Z,99452.96
2023-03-06T18:36:42.414Z,99454.08
2023-03-06T18:39:14.124Z,99455.11
2023-03-06T18:41:44.976Z,99455.53
2023-03-06T18:44:16.382Z,99452.11
2023-03-06T18:46:47.158Z,99452.26
2023-03-06T18:49:18.299Z,99453.23
2023-03-06T18:51:51.285Z,99460.02
2023-03-06T18:54:22.246Z,99462.94
2023-03-06T18:56:51.750Z,99460.58
2023-03-06T18:59:22.691Z,99462.63
2023-03-06T19:01:53.703Z,99464.55
2023-03-06T19:04:23.157Z,99466.36
2023-03-06T19:06:54.279Z,99461.20
2023-03-06T19:09:24.905Z,99466.73
2023-03-06T19:11:57.301Z,99468.52
2023-03-06T19:14:28.646Z,99469.48
2023-03-06T19:16:59.429Z,99468.86
2023-03-06T19:19:30.167Z,99467.50
2023-03-06T19:22:01.482Z,99471.32
2023-03-06T19:24:32.477Z,99473.79
2023-03-06T19:27:03.204Z,99476.21
2023-03-06T19:29:33.861Z,99477.86
2023-03-06T19:32:05.089Z,99475.39
2023-03-06T19:34:35.811Z,99473.57
2023-03-06T19:37:06.493Z,99475.58
2023-03-06T19:39:37.167Z,99477.54
2023-03-06T19:42:07.989Z,99479.88
2023-03-06T19:44:38.733Z,99477.52
2023-03-06T19:47:09.620Z,99476.41
2023-03-06T19:49:40.718Z,99478.88
2023-03-06T19:52:09.829Z,99483.91
2023-03-06T19:54:41.023Z,99481.30
2023-03-06T19:57:10.178Z,99484.41
2023-03-06T19:59:40.880Z,99482.48
2023-03-06T20:02:12.915Z,99482.70
2023-03-06T20:04:43.953Z,99482.52
2023-03-06T20:07:13.128Z,99486.26
2023-03-06T20:09:44.013Z,99482.07
2023-03-06T20:12:15.116Z,99484.36
2023-03-06T20:14:45.861Z,99484.70
2023-03-06T20:17:16.764Z,99486.13
2023-03-06T20:19:46.581Z,99484.17
2023-03-06T20:22:17.339Z,99484.64
2023-03-06T20:24:48.120Z,99487.20
2023-03-06T20:27:18.879Z,99487.55
2023-03-06T20:29:49.811Z,99492.06
2023-03-06T20:32:20.493Z,99489.42
2023-03-06T20:34:51.185Z,99493.77
2023-03-06T20:37:21.890Z,99491.36
2023-03-06T20:39:52.996Z,99490.05
2023-03-06T20:42:22.117Z,99488.96
2023-03-06T20:44:53.051Z,99490.03
2023-03-06T20:47:23.806Z,99488.80
2023-03-06T20:49:54.562Z,99486.92
2023-03-06T20:52:25.175Z,99484.63
2023-03-06T20:54:55.835Z,99485.21
2023-03-06T20:57:26.529Z,99484.10
2023-03-06T20:59:57.141Z,99484.53
2023-03-06T21:02:27.864Z,99480.42
2023-03-06T21:04:58.635Z,99479.02
2023-03-06T21:07:29.379Z,99477.12
2023-03-06T21:10:00.317Z,99474.73
2023-03-06T21:12:30.993Z,99472.50
2023-03-06T21:15:01.679Z,99475.14
2023-03-06T21:17:32.385Z,99472.79
2023-03-06T21:20:03.248Z,99472.86
2023-03-06T21:22:33.911Z,99471.01
2023-03-06T21:25:05.319Z,99475.31
2023-03-06T21:27:36.057Z,99477.38
2023-03-06T21:30:09.041Z,99474.57
2023-03-06T21:32:40.065Z,99475.38
2023-03-06T21:35:10.814Z,99478.69
2023-03-06T21:37:41.564Z,99479.61
2023-03-06T21:40:14.777Z,99478.61
2023-03-06T21:42:45.491Z,99476.81
2023-03-06T21:45:16.734Z,99480.91
2023-03-06T21:47:49.276Z,99480.41
2023-03-06T21:50:20.210Z,99480.73
2023-03-06T21:52:50.948Z,99478.63
2023-03-06T21:55:23.003Z,99476.96
2023-03-06T21:57:54.952Z,99481.30
2023-03-06T22:00:25.859Z,99477.80
2023-03-06T22:02:56.591Z,99476.95
2023-03-06T22:05:27.255Z,99475.86
2023-03-06T22:07:58.008Z,99475.10
2023-03-06T22:10:29.079Z,99472.39
2023-03-06T22:12:58.344Z,99470.23
2023-03-06T22:15:29.005Z,99468.45
2023-03-06T22:17:59.716Z,99460.76
2023-03-06T22:20:30.452Z,99462.34
2023-03-06T22:23:01.110Z,99453.47
2023-03-06T22:25:33.802Z,99453.00
2023-03-06T22:28:04.503Z,99449.77
2023-03-06T22:30:35.207Z,99446.20
2023-03-06T22:33:06.064Z,99446.70
2023-03-06T22:35:36.832Z,99444.54
2023-03-06T22:38:07.499Z,99440.90
2023-03-06T22:40:38.361Z,99442.36
2023-03-06T22:43:09.025Z,99442.79
2023-03-06T22:45:39.646Z,99441.70
2023-03-06T22:48:11.387Z,99442.52
2023-03-06T22:50:42.077Z,99442.52
2023-03-06T22:53:12.771Z,99438.34
2023-03-06T22:55:43.525Z,99438.63
2023-03-06T22:58:14.174Z,99443.30
2023-03-06T23:00:44.879Z,99436.40
2023-03-06T23:03:15.569Z,99436.30
2023-03-06T23:05:46.188Z,99432.16
2023-03-06T23:08:16.886Z,99430.94
2023-03-06T23:10:47.585Z,99428.00
2023-03-06T23:13:18.215Z,99429.99
2023-03-06T23:15:48.978Z,99428.97
2023-03-06T23:18:19.712Z,99430.19
2023-03-06T23:20:50.363Z,99426.83
2023-03-06T23:23:21.439Z,99423.20
2023-03-06T23:25:50.508Z,99424.30
2023-03-06T23:28:21.545Z,99423.82
2023-03-06T23:30:50.732Z,99422.60
2023-03-06T23:33:21.447Z,99425.16
2023-03-06T23:35:55.527Z,99423.89
2023-03-06T23:38:26.231Z,99424.27
2023-03-06T23:41:01.017Z,99419.59
2023-03-06T23:43:31.974Z,99420.16
2023-03-06T23:46:02.706Z,99420.56
2023-03-06T23:48:33.805Z,99419.52
2023-03-06T23:51:06.131Z,99414.78
2023-03-06T23:53:37.189Z,99413.12
2023-03-06T23:56:06.790Z,99405.52
2023-03-06T23:58:37.624Z,99401.80
